Time;durP1;ratioP1;P1;durP2;ratioP2;P2;SDS_P1;SDS_P2;PMS_P1;PMS_P2;Temp;Humidity;BMP_temperature;BMP_pressure;BME280_temperature;BME280_humidity;BME280_pressure;Samples;Min_cycle;Max_cycle;Signal;HPM_P1;HPM_P2
2023/05/20 11:45:49;;;;;;;6.30;4.70;;;;;;;22.36;43.40;99651.63;1076426;54;20480;31
2023/05/20 11:59:35;;;;;;;6.28;4.35;;;;;;;22.61;42.92;99636.19;1078624;39;21038;31
2023/05/20 12:16:53;;;;;;;7.03;4.65;;;;;;;22.87;42.77;99630.31;1087580;54;20387;-84
2023/05/20 12:19:01;;;;;;;8.63;4.97;;;;;;;23.01;43.07;99624.63;1086939;54;20723;-85
2023/05/20 12:20:05;;;;;;;7.93;4.90;;;;;;;22.92;43.03;99612.44;1087528;54;20030;-84
2023/05/20 12:21:09;;;;;;;7.35;4.07;;;;;;;22.92;43.20;99615.97;1087372;47;20026;-87
2023/05/20 12:22:10;;;;;;;7.75;4.63;;;;;;;23.03;42.86;99619.78;1087376;54;20476;-85
2023/05/20 12:23:13;;;;;;;6.90;4.60;;;;;;;22.97;43.00;99612.53;1087149;47;20030;-86
2023/05/20 12:24:15;;;;;;;6.55;4.55;;;;;;;22.97;43.16;99616.09;1087181;54;20027;-85
2023/05/20 12:25:20;;;;;;;7.10;4.63;;;;;;;23.03;43.27;99612.41;1087167;54;20107;-86
2023/05/20 12:26:21;;;;;;;8.05;4.28;;;;;;;22.79;43.61;99619.75;1087160;54;20037;-87
2023/05/20 12:27:25;;;;;;;8.65;4.65;;;;;;;22.82;43.94;99613.84;1087113;54;20035;-85
2023/05/20 12:28:26;;;;;;;6.45;4.72;;;;;;;22.87;43.92;99619.41;1087006;47;21066;-86
2023/05/20 12:29:29;;;;;;;6.20;4.93;;;;;;;22.84;44.00;99617.19;1087162;47;20036;-85
2023/05/20 12:30:31;;;;;;;7.30;4.63;;;;;;;22.86;44.00;99606.84;1087166;54;20037;-86
2023/05/20 12:31:34;;;;;;;6.07;4.35;;;;;;;22.78;44.08;99611.84;1087190;47;20061;-86
2023/05/20 12:32:38;;;;;;;7.25;4.78;;;;;;;22.95;43.26;99609.25;1087093;54;20083;-87
2023/05/20 12:33:42;;;;;;;6.65;4.40;;;;;;;22.92;43.60;99596.09;1087013;54;20061;-85
2023/05/20 12:34:43;;;;;;;6.30;4.50;;;;;;;22.96;43.22;99611.72;1087196;54;20026;-87
2023/05/20 12:35:46;;;;;;;6.57;4.45;;;;;;;23.05;43.19;99606.72;1087305;47;20037;-86
2023/05/20 12:36:47;;;;;;;6.57;5.03;;;;;;;22.77;43.52;99611.00;1087000;47;20023;-85
2023/05/20 12:37:51;;;;;;;6.55;4.80;;;;;;;22.76;43.47;99606.63;1087154;47;20060;-84
2023/05/20 12:38:52;;;;;;;7.35;4.90;;;;;;;22.83;43.31;99610.06;1087077;47;20030;-85
2023/05/20 12:39:56;;;;;;;7.63;4.90;;;;;;;22.70;43.51;99602.97;1087223;54;20044;-85
2023/05/20 12:42:01;;;;;;;6.88;4.70;;;;;;;23.14;42.68;99596.31;1087833;54;20034;-86
2023/05/20 12:43:03;;;;;;;6.18;4.72;;;;;;;22.95;42.81;99598.34;1087794;54;20031;-88
2023/05/20 12:44:07;;;;;;;7.38;4.68;;;;;;;22.97;42.93;99597.03;1087327;47;20065;-84
2023/05/20 12:45:09;;;;;;;7.70;4.80;;;;;;;22.98;43.11;99587.78;1087390;54;20031;-84
2023/05/20 12:46:13;;;;;;;5.43;4.30;;;;;;;23.18;42.57;99592.88;1087631;54;20031;-86
2023/05/20 12:48:21;;;;;;;7.57;4.97;;;;;;;22.98;43.04;99604.16;1087569;54;20011;-87
2023/05/20 12:49:22;;;;;;;7.20;5.03;;;;;;;22.86;43.22;99595.94;1087357;47;20050;-85
2023/05/20 12:50:27;;;;;;;8.85;5.13;;;;;;;22.97;43.12;99607.09;1090323;39;20666;-83
2023/05/20 12:51:28;;;;;;;6.20;4.45;;;;;;;23.20;42.77;99601.66;1087247;47;20055;-85
2023/05/20 12:52:31;;;;;;;7.32;4.28;;;;;;;23.28;42.59;99602.34;1089706;39;20336;-85
2023/05/20 12:53:32;;;;;;;7.53;4.45;;;;;;;23.27;42.44;99589.78;1087237;54;20030;-83
2023/05/20 12:54:36;;;;;;;5.40;4.28;;;;;;;23.26;42.69;99605.34;1087395;47;20064;-85
2023/05/20 12:55:40;;;;;;;8.77;5.20;;;;;;;23.26;42.83;99607.22;1087411;47;20852;-86
2023/05/20 12:56:41;;;;;;;8.45;5.25;;;;;;;23.14;42.96;99590.84;1087229;54;20098;-85
2023/05/20 12:57:46;;;;;;;9.57;4.57;;;;;;;23.26;42.82;99602.59;1087162;47;20034;-83
2023/05/20 12:58:47;;;;;;;6.07;5.00;;;;;;;23.48;42.27;99591.88;1087166;47;20023;-85
2023/05/20 12:59:51;;;;;;;7.47;5.35;;;;;;;23.74;42.19;99594.31;1087204;47;20037;-86
2023/05/20 13:00:54;;;;;;;5.88;4.43;;;;;;;23.93;42.00;99597.66;1087396;47;20051;-87
2023/05/20 13:03:00;;;;;;;8.60;4.40;;;;;;;23.58;42.14;99601.34;1087576;54;20019;-84
2023/05/20 13:04:04;;;;;;;6.43;4.55;;;;;;;23.79;41.76;99597.13;1087177;47;20437;-85
2023/05/20 13:05:08;;;;;;;7.30;5.68;;;;;;;23.48;41.42;99585.59;1087084;47;20030;-84
2023/05/20 13:06:10;;;;;;;6.82;5.35;;;;;;;23.26;42.01;99594.44;1091609;39;20283;-85
2023/05/20 13:07:13;;;;;;;5.93;4.57;;;;;;;23.38;41.82;99591.66;1086963;54;20066;-84
2023/05/20 13:08:14;;;;;;;7.78;5.13;;;;;;;23.44;41.77;99589.88;1087071;54;20030;-85
2023/05/20 13:09:18;;;;;;;6.03;4.45;;;;;;;23.63;41.68;99585.91;1086991;47;20027;-85
2023/05/20 13:10:22;;;;;;;6.03;4.63;;;;;;;23.56;41.24;99587.13;1086879;47;20022;-86
2023/05/20 13:11:23;;;;;;;7.45;4.88;;;;;;;23.45;41.56;99592.34;1086859;47;20027;-86
2023/05/20 13:12:27;;;;;;;6.47;5.13;;;;;;;23.49;41.61;99576.34;1086981;54;20030;-85
2023/05/20 13:14:38;;;;;;;6.43;4.93;;;;;;;23.58;41.82;99580.34;1087578;54;20023;-84
2023/05/20 13:15:40;;;;;;;6.78;4.85;;;;;;;23.39;41.54;99582.41;1087467;47;20034;-86
2023/05/20 13:16:43;;;;;;;6.88;4.88;;;;;;;23.51;41.88;99582.38;1087420;47;21276;-85
2023/05/20 13:18:55;;;;;;;7.85;4.95;;;;;;;23.45;41.61;99581.44;1087952;54;20027;-85
2023/05/20 13:20:02;;;;;;;6.95;5.07;;;;;;;23.30;41.45;99581.13;1087523;46;20047;-85
2023/05/20 13:21:03;;;;;;;7.80;4.90;;;;;;;23.23;41.74;99581.25;1087412;47;20104;-85
2023/05/20 13:23:14;;;;;;;7.45;4.93;;;;;;;23.62;41.57;99575.22;1087791;54;20026;-86
2023/05/20 13:25:26;;;;;;;6.05;4.80;;;;;;;23.68;41.37;99579.72;1087950;54;20023;-85
2023/05/20 13:26:27;;;;;;;6.28;4.93;;;;;;;23.73;41.10;99577.09;1087739;54;21369;-84
2023/05/20 13:27:31;;;;;;;6.25;4.78;;;;;;;23.75;40.93;99580.41;1087327;46;20033;-86
2023/05/20 13:29:36;;;;;;;5.73;4.13;;;;;;;24.13;40.60;99584.41;1070575;54;20030;-86
2023/05/20 13:30:37;;;;;;;6.25;4.57;;;;;;;23.75;40.97;99568.69;1102350;39;20781;-86
2023/05/20 13:33:51;;;;;;;6.88;4.50;;;;;;;23.81;41.12;99578.59;1087940;46;20051;-85
2023/05/20 13:34:52;;;;;;;9.45;5.40;;;;;;;23.80;41.34;99583.25;1087705;47;20050;-85
2023/05/20 13:37:00;;;;;;;5.80;4.32;;;;;;;23.77;40.98;99578.28;1087984;47;20405;-84
2023/05/20 13:38:01;;;;;;;9.00;4.85;;;;;;;23.51;41.66;99576.94;1087697;46;20110;-84
2023/05/20 13:39:04;;;;;;;6.82;4.75;;;;;;;23.56;41.33;99571.59;1092678;39;20821;-84
2023/05/20 13:40:07;;;;;;;9.32;5.45;;;;;;;23.48;41.53;99566.50;1087455;47;20022;-86
2023/05/20 13:41:11;;;;;;;6.00;4.45;;;;;;;23.48;41.78;99564.59;1087639;54;20061;-88
2023/05/20 13:44:55;;;;;;;6.10;4.47;;;;;;;23.54;41.42;99546.44;1078439;54;20042;-85
2023/05/20 13:45:57;;;;;;;6.30;5.22;;;;;;;23.65;41.87;99548.31;1087707;47;20026;-85
2023/05/20 13:48:04;;;;;;;5.95;4.70;;;;;;;23.96;41.06;99550.81;1086159;54;19926;-85
2023/05/20 13:49:05;;;;;;;7.05;5.00;;;;;;;23.66;41.56;99555.41;1088151;54;20031;-86
2023/05/20 13:50:10;;;;;;;7.28;5.10;;;;;;;23.66;41.79;99546.41;1088143;54;20065;-87
2023/05/20 13:51:11;;;;;;;9.68;4.82;;;;;;;23.63;42.04;99555.06;1087666;46;20023;-85
2023/05/20 13:53:19;;;;;;;5.97;4.82;;;;;;;23.70;41.84;99550.31;1087811;54;20034;-84
2023/05/20 13:54:20;;;;;;;7.78;5.03;;;;;;;23.57;42.01;99542.41;1087372;46;20026;-82
2023/05/20 13:55:24;;;;;;;7.28;4.75;;;;;;;23.63;42.26;99544.16;1088213;46;20129;-85
2023/05/20 13:56:25;;;;;;;7.10;4.30;;;;;;;23.78;41.96;99540.88;1087243;47;20034;-85
2023/05/20 13:57:29;;;;;;;9.90;5.32;;;;;;;23.63;42.32;99541.41;1087218;47;20026;-85
2023/05/20 13:58:30;;;;;;;5.85;4.45;;;;;;;23.68;42.09;99545.06;1087221;47;20023;-84
2023/05/20 13:59:34;;;;;;;9.02;4.90;;;;;;;23.68;41.87;99538.81;1087243;54;20046;-85
2023/05/20 14:00:35;;;;;;;6.50;4.50;;;;;;;23.77;41.61;99542.78;1087311;54;20138;-86
2023/05/20 14:01:43;;;;;;;6.82;4.97;;;;;;;23.89;41.64;99541.91;1087319;54;20030;-85
2023/05/20 14:02:44;;;;;;;9.75;4.63;;;;;;;23.88;41.34;99532.88;1087209;54;20112;-86
2023/05/20 14:03:48;;;;;;;5.88;4.05;;;;;;;23.89;41.07;99536.47;1087135;47;20100;-83
2023/05/20 14:04:49;;;;;;;6.03;4.72;;;;;;;23.69;41.48;99537.75;1087243;54;20162;-84
2023/05/20 14:05:53;;;;;;;7.75;4.75;;;;;;;23.66;41.78;99527.31;1087437;39;20693;-84
2023/05/20 14:06:58;;;;;;;7.55;4.63;;;;;;;23.89;41.14;99533.72;1087236;39;20861;-85
2023/05/20 14:07:59;;;;;;;6.15;4.93;;;;;;;23.83;41.62;99533.63;1087271;46;20041;-83
2023/05/20 14:09:05;;;;;;;7.07;4.82;;;;;;;23.78;41.47;99532.69;1087192;47;20042;-82
2023/05/20 14:10:08;;;;;;;6.28;4.60;;;;;;;23.79;41.58;99532.47;1087246;46;20027;-84
2023/05/20 14:11:12;;;;;;;6.43;4.90;;;;;;;23.77;41.52;99529.16;1087157;47;20070;-82
2023/05/20 14:12:13;;;;;;;7.00;5.05;;;;;;;23.60;41.89;99534.56;1087221;54;20030;-86
2023/05/20 14:13:16;;;;;;;9.18;5.13;;;;;;;23.66;41.84;99528.13;1087162;46;20463;-83
2023/05/20 14:14:17;;;;;;;7.45;5.43;;;;;;;23.58;41.87;99523.06;1087070;47;20041;-83
2023/05/20 14:15:21;;;;;;;6.10;4.45;;;;;;;23.80;41.68;99528.66;1087311;54;20892;-83
2023/05/20 14:16:22;;;;;;;7.95;5.03;;;;;;;23.72;41.39;99520.84;1087267;47;20030;-82
2023/05/20 14:17:26;;;;;;;6.75;4.32;;;;;;;23.70;41.50;99522.19;1087170;54;20053;-81
2023/05/20 14:18:30;;;;;;;8.35;5.30;;;;;;;23.67;41.57;99526.22;1088888;39;20780;-83
2023/05/20 14:19:31;;;;;;;6.50;4.97;;;;;;;23.78;41.65;99525.34;1087155;54;20033;-85
2023/05/20 14:20:34;;;;;;;6.47;4.63;;;;;;;23.86;41.83;99526.03;1087056;47;20110;-84
2023/05/20 14:21:35;;;;;;;8.85;4.65;;;;;;;23.80;41.38;99522.38;1087325;54;20086;-83
2023/05/20 14:22:39;;;;;;;6.35;4.65;;;;;;;23.83;41.78;99527.34;1087166;54;20026;-83
2023/05/20 14:23:43;;;;;;;6.35;4.75;;;;;;;24.02;41.70;99513.50;1087357;54;20057;-82
2023/05/20 14:24:47;;;;;;;6.00;4.35;;;;;;;24.32;41.02;99523.28;1087317;46;20055;-85
2023/05/20 14:25:51;;;;;;;7.47;4.90;;;;;;;24.18;41.01;99528.25;1087069;54;20034;-84
2023/05/20 14:26:52;;;;;;;6.22;4.68;;;;;;;24.32;40.90;99518.66;1087075;54;20031;-82
2023/05/20 14:27:56;;;;;;;7.90;4.82;;;;;;;24.42;41.01;99512.50;1087277;47;21151;-85
2023/05/20 14:28:57;;;;;;;6.85;4.75;;;;;;;24.51;41.15;99515.66;1087241;54;20050;-86
2023/05/20 14:30:01;;;;;;;8.57;4.97;;;;;;;24.66;41.26;99512.31;1087051;46;20035;-83
2023/05/20 14:31:06;;;;;;;10.13;4.82;;;;;;;24.47;40.86;99506.31;1087257;54;20054;-83
2023/05/20 14:32:07;;;;;;;6.88;5.47;;;;;;;24.40;41.36;99515.50;1087048;54;20030;-85
2023/05/20 14:33:11;;;;;;;7.80;5.60;;;;;;;24.29;41.31;99516.41;1087147;54;20038;-83
2023/05/20 14:34:12;;;;;;;6.38;5.13;;;;;;;24.36;41.14;99511.63;1087091;54;20034;-83
2023/05/20 14:35:17;;;;;;;7.10;4.95;;;;;;;24.44;41.11;99508.47;1087105;54;20034;-85
2023/05/20 14:36:18;;;;;;;8.38;5.57;;;;;;;24.36;41.13;99511.63;1087193;47;20030;-84
2023/05/20 14:37:21;;;;;;;6.05;4.55;;;;;;;24.69;40.58;99500.94;1087192;54;20106;-86
2023/05/20 14:38:23;;;;;;;8.25;4.90;;;;;;;24.76;40.48;99512.50;1087230;54;20106;-84
2023/05/20 14:39:26;;;;;;;6.45;5.05;;;;;;;24.54;40.82;99505.03;1087102;54;20034;-83
2023/05/20 14:40:30;;;;;;;9.70;4.63;;;;;;;24.39;41.23;99511.09;1087117;54;20034;-84
2023/05/20 14:41:33;;;;;;;8.20;5.43;;;;;;;24.47;41.04;99500.84;1087050;47;20031;-81
2023/05/20 14:42:35;;;;;;;6.28;5.03;;;;;;;24.51;41.06;99500.09;1087237;54;20030;-85
2023/05/20 14:43:39;;;;;;;6.97;5.05;;;;;;;24.55;40.98;99494.97;1087171;54;20035;-83
2023/05/20 14:44:40;;;;;;;7.10;4.68;;;;;;;24.57;41.16;99490.06;1087009;47;20435;-82
2023/05/20 14:45:45;;;;;;;8.18;5.30;;;;;;;24.71;40.96;99490.56;1087019;47;20051;-81
2023/05/20 14:46:46;;;;;;;6.47;4.78;;;;;;;24.79;40.48;99494.75;1087007;47;20031;-80
2023/05/20 14:47:50;;;;;;;6.75;5.10;;;;;;;25.01;40.34;99481.94;1087245;47;20022;-81
2023/05/20 14:48:51;;;;;;;6.65;4.93;;;;;;;24.96;40.35;99486.53;1087198;54;20126;-84
2023/05/20 14:49:55;;;;;;;8.68;5.55;;;;;;;25.13;40.36;99489.22;1087257;47;20037;-81
2023/05/20 14:50:58;;;;;;;5.82;4.65;;;;;;;25.43;39.68;99480.56;1087259;47;20047;-84
2023/05/20 14:52:00;;;;;;;6.80;4.43;;;;;;;25.48;39.31;99486.06;1087210;54;20030;-84
2023/05/20 14:53:04;;;;;;;9.30;5.10;;;;;;;25.35;39.42;99480.97;1087050;47;20057;-83
2023/05/20 14:54:05;;;;;;;5.80;4.70;;;;;;;25.17;39.51;99479.41;1087239;54;20034;-83
2023/05/20 14:55:09;;;;;;;6.82;4.93;;;;;;;25.20;39.71;99470.69;1087096;47;20034;-82
2023/05/20 14:56:16;;;;;;;8.30;5.35;;;;;;;25.10;39.50;99478.78;1087118;47;20050;-85
2023/05/20 14:57:17;;;;;;;7.38;5.45;;;;;;;25.13;39.82;99475.53;1087264;54;20034;-82
2023/05/20 14:58:20;;;;;;;5.78;4.50;;;;;;;25.23;39.47;99481.09;1087211;47;20105;-83
2023/05/20 14:59:21;;;;;;;7.25;5.18;;;;;;;25.17;39.51;99472.03;1087272;54;20074;-83
2023/05/20 15:00:25;;;;;;;7.95;5.20;;;;;;;25.02;39.56;99480.03;1087115;54;20046;-82
2023/05/20 15:01:26;;;;;;;7.78;4.93;;;;;;;24.84;39.97;99479.25;1087074;47;20050;-80
2023/05/20 15:02:30;;;;;;;6.47;5.13;;;;;;;24.72;40.37;99470.34;1087018;47;20022;-80
2023/05/20 15:03:31;;;;;;;8.45;5.07;;;;;;;24.76;40.21;99472.31;1087052;47;20094;-80
2023/05/20 15:04:34;;;;;;;7.47;4.90;;;;;;;24.56;40.65;99480.22;1087196;47;20027;-82
2023/05/20 15:05:35;;;;;;;6.65;4.72;;;;;;;24.52;40.25;99466.22;1087057;54;21407;-83
2023/05/20 15:06:40;;;;;;;10.55;4.97;;;;;;;24.49;40.32;99471.34;1087711;39;20344;-81
2023/05/20 15:07:41;;;;;;;6.90;4.88;;;;;;;24.49;40.51;99464.00;1087079;54;20037;-81
2023/05/20 15:08:45;;;;;;;14.07;5.20;;;;;;;24.85;39.90;99471.88;1087028;54;20050;-83
2023/05/20 15:09:46;;;;;;;6.40;5.15;;;;;;;24.74;40.11;99471.78;1090449;39;20717;-85
2023/05/20 15:10:50;;;;;;;6.35;4.95;;;;;;;24.90;40.00;99478.25;1087094;54;20034;-83
2023/05/20 15:11:54;;;;;;;6.20;5.03;;;;;;;25.15;39.48;99473.34;1087080;47;20953;-84
2023/05/20 15:12:57;;;;;;;6.65;4.93;;;;;;;25.45;38.95;99469.34;1087065;54;20039;-84
2023/05/20 15:13:59;;;;;;;7.07;5.22;;;;;;;25.46;39.11;99469.06;1086979;47;20048;-83
2023/05/20 15:15:02;;;;;;;6.00;4.78;;;;;;;25.75;38.66;99468.81;1087115;54;20046;-83
2023/05/20 15:16:05;;;;;;;5.25;4.00;;;;;;;25.92;38.21;99465.94;1086951;54;20027;-82
2023/05/20 15:17:09;;;;;;;9.10;5.00;;;;;;;25.82;38.56;99479.56;1086932;47;20044;-82
2023/05/20 15:18:12;;;;;;;12.55;5.15;;;;;;;25.81;38.14;99477.91;1087086;54;20038;-83
2023/05/20 15:19:13;;;;;;;6.72;5.18;;;;;;;25.77;38.34;99476.78;1087039;47;20030;-83
2023/05/20 15:20:17;;;;;;;7.35;5.05;;;;;;;25.78;38.28;99479.25;1087110;46;20056;-82
2023/05/20 15:21:18;;;;;;;5.80;4.15;;;;;;;25.67;38.58;99482.97;1087028;47;20028;-82
2023/05/20 15:22:21;;;;;;;5.75;4.80;;;;;;;25.63;38.96;99484.59;1086985;46;20068;-81
2023/05/20 15:23:22;;;;;;;6.30;4.82;;;;;;;25.57;38.71;99482.84;1087978;39;20871;-82
2023/05/20 15:24:26;;;;;;;6.22;5.05;;;;;;;25.31;39.03;99488.88;1087007;47;20083;-83
2023/05/20 15:25:30;;;;;;;7.68;5.07;;;;;;;24.98;40.07;99492.56;1087328;39;20905;-81
2023/05/20 15:26:31;;;;;;;6.57;4.90;;;;;;;24.74;40.35;99493.63;1087064;47;20034;-82
2023/05/20 15:27:37;;;;;;;6.50;5.07;;;;;;;24.73;40.48;99483.78;1087041;54;20035;-81
2023/05/20 15:28:38;;;;;;;6.25;4.60;;;;;;;24.94;40.14;99486.75;1087138;54;20215;-84
2023/05/20 15:29:42;;;;;;;6.70;5.43;;;;;;;24.92;40.29;99486.22;1086991;54;20085;-82
2023/05/20 15:30:43;;;;;;;6.97;5.25;;;;;;;24.86;39.86;99484.47;1087064;47;20023;-80
2023/05/20 15:31:47;;;;;;;6.50;4.90;;;;;;;24.99;40.01;99475.06;1087034;54;20038;-79
2023/05/20 15:32:48;;;;;;;6.72;4.85;;;;;;;24.67;40.29;99483.91;1087163;54;20027;-82
2023/05/20 15:33:52;;;;;;;6.93;5.03;;;;;;;24.54;40.50;99476.91;1087136;54;20034;-82
2023/05/20 15:34:53;;;;;;;7.25;5.10;;;;;;;24.44;40.90;99480.31;1089494;39;20315;-83
2023/05/20 15:35:56;;;;;;;6.72;5.25;;;;;;;24.59;40.83;99483.28;1087084;47;20030;-82
2023/05/20 15:36:57;;;;;;;6.93;4.95;;;;;;;24.43;40.64;99492.31;1087091;46;20051;-82
2023/05/20 15:38:01;;;;;;;10.48;5.70;;;;;;;24.28;41.25;99493.75;1088514;39;20292;-82
2023/05/20 15:39:02;;;;;;;6.88;5.25;;;;;;;24.34;41.13;99500.09;1087096;47;20044;-83
2023/05/20 15:40:07;;;;;;;6.65;5.22;;;;;;;24.31;41.19;99484.22;1087109;46;20061;-82
2023/05/20 15:41:11;;;;;;;7.97;5.45;;;;;;;24.20;41.33;99493.31;1087191;54;20042;-83
2023/05/20 15:42:17;;;;;;;8.27;5.00;;;;;;;24.21;41.50;99493.09;1087002;47;20030;-80
2023/05/20 15:43:20;;;;;;;7.35;5.47;;;;;;;24.15;41.41;99499.53;1087049;46;20062;-83
2023/05/20 15:44:24;;;;;;;6.20;4.82;;;;;;;24.29;41.48;99489.94;1087031;54;20054;-83
2023/05/20 15:45:26;;;;;;;6.53;4.65;;;;;;;24.56;40.96;99493.88;1087193;54;20034;-85
2023/05/20 15:46:30;;;;;;;5.90;5.05;;;;;;;24.50;40.78;99490.25;1087211;54;20060;-83
2023/05/20 15:47:33;;;;;;;7.80;4.75;;;;;;;24.27;41.32;99483.88;1087166;46;20435;-81
2023/05/20 15:48:36;;;;;;;6.60;5.13;;;;;;;24.23;41.69;99493.63;1087044;47;20054;-82
2023/05/20 15:49:40;;;;;;;8.35;5.60;;;;;;;24.27;41.73;99491.28;1087014;47;20031;-83
2023/05/20 15:50:41;;;;;;;6.80;4.63;;;;;;;24.32;41.61;99495.97;1086950;47;20074;-82
2023/05/20 15:51:44;;;;;;;7.05;5.28;;;;;;;24.11;41.71;99492.91;1087024;54;20030;-82
2023/05/20 15:52:48;;;;;;;8.77;5.00;;;;;;;23.97;41.86;99489.69;1086870;47;21249;-83
2023/05/20 15:53:49;;;;;;;6.90;5.88;;;;;;;23.98;42.10;99496.81;1087235;39;20789;-84
2023/05/20 15:54:53;;;;;;;7.28;5.35;;;;;;;23.87;41.98;99489.47;1087214;54;20072;-83
2023/05/20 15:55:54;;;;;;;9.07;5.65;;;;;;;23.88;42.26;99486.50;1087179;47;20082;-83
2023/05/20 15:56:58;;;;;;;7.05;5.28;;;;;;;23.98;41.79;99488.63;1087049;54;20030;-83
2023/05/20 15:57:59;;;;;;;7.95;5.50;;;;;;;23.98;42.13;99483.97;1087072;47;20042;-84
2023/05/20 15:59:05;;;;;;;7.43;4.88;;;;;;;24.06;41.83;99482.75;1087015;54;20035;-83
2023/05/20 16:00:09;;;;;;;6.97;5.20;;;;;;;23.88;42.08;99480.22;1087125;47;20152;-84
2023/05/20 16:01:13;;;;;;;7.43;4.95;;;;;;;23.89;42.17;99488.16;1087189;47;20061;-85
2023/05/20 16:02:16;;;;;;;8.20;5.50;;;;;;;23.92;42.04;99481.38;1086974;46;20056;-85
2023/05/20 16:03:17;;;;;;;8.80;5.75;;;;;;;24.06;41.83;99481.91;1087089;47;20058;-83
2023/05/20 16:04:21;;;;;;;6.93;5.80;;;;;;;23.84;42.49;99483.44;1087125;54;20038;-84
2023/05/20 16:05:24;;;;;;;6.93;5.57;;;;;;;23.90;42.52;99478.06;1086995;54;20026;-80
2023/05/20 16:06:27;;;;;;;6.47;4.90;;;;;;;23.71;42.63;99493.81;1086936;47;20026;-83
2023/05/20 16:07:30;;;;;;;8.73;6.32;;;;;;;23.67;43.06;99490.75;1086594;54;20035;-82
2023/05/20 16:08:36;;;;;;;10.57;5.88;;;;;;;23.60;43.09;99485.47;1086498;47;20944;-81
2023/05/20 16:09:37;;;;;;;6.93;5.20;;;;;;;23.69;43.07;99491.34;1089932;39;20968;-83
2023/05/20 16:10:40;;;;;;;8.68;5.85;;;;;;;23.75;43.18;99484.09;1087075;47;20037;-84
2023/05/20 16:11:41;;;;;;;6.95;5.32;;;;;;;23.81;42.82;99481.19;1088468;39;20884;-85
2023/05/20 16:12:45;;;;;;;6.45;5.15;;;;;;;23.74;42.94;99496.06;1086946;47;20026;-83
2023/05/20 16:13:46;;;;;;;6.85;5.00;;;;;;;23.62;43.30;99488.78;1086969;54;20093;-83
2023/05/20 16:14:53;;;;;;;6.63;5.10;;;;;;;23.64;43.27;99499.44;1087053;54;20041;-84
2023/05/20 16:15:56;;;;;;;7.88;5.35;;;;;;;23.62;43.11;99496.09;1086990;54;20065;-84
2023/05/20 16:17:00;;;;;;;7.68;5.32;;;;;;;23.64;43.07;99496.69;1088333;39;20837;-84
2023/05/20 16:18:01;;;;;;;6.78;5.25;;;;;;;23.58;42.96;99489.50;1087264;46;20030;-84
2023/05/20 16:19:05;;;;;;;7.10;5.70;;;;;;;23.53;43.12;99496.50;1087062;54;20055;-84
2023/05/20 16:20:07;;;;;;;7.68;5.50;;;;;;;23.48;43.35;99485.50;1086951;54;20037;-85
2023/05/20 16:21:10;;;;;;;7.20;5.43;;;;;;;23.36;43.42;99490.19;1086950;46;20026;-84
2023/05/20 16:22:12;;;;;;;9.23;5.30;;;;;;;23.43;43.47;99500.94;1086920;47;20022;-85
2023/05/20 16:23:16;;;;;;;7.22;5.75;;;;;;;23.34;43.27;99486.88;1087115;47;20037;-83
2023/05/20 16:24:17;;;;;;;6.90;5.45;;;;;;;23.24;43.72;99492.13;1087210;47;20096;-81
2023/05/20 16:25:20;;;;;;;9.55;6.63;;;;;;;23.33;43.63;99496.13;1086924;47;20034;-81
2023/05/20 16:26:22;;;;;;;8.05;5.75;;;;;;;23.32;43.28;99483.56;1086983;54;20033;-85
2023/05/20 16:27:25;;;;;;;7.68;5.43;;;;;;;23.25;43.72;99482.88;1086938;54;20039;-81
2023/05/20 16:28:26;;;;;;;8.02;5.22;;;;;;;23.26;43.56;99489.97;1086979;54;20027;-83
2023/05/20 16:29:30;;;;;;;10.48;6.35;;;;;;;23.23;43.70;99480.38;1086971;47;20034;-84
2023/05/20 16:30:36;;;;;;;7.22;5.03;;;;;;;23.22;43.93;99484.19;1086936;54;20030;-83
2023/05/20 16:31:37;;;;;;;8.02;5.88;;;;;;;23.14;43.54;99481.81;1086987;47;20041;-82
2023/05/20 16:32:41;;;;;;;7.18;5.53;;;;;;;23.16;43.74;99479.69;1087011;54;20122;-83
2023/05/20 16:34:31;;;;;;;6.65;5.40;;;;;;;23.35;43.23;99485.78;1087044;46;20038;-84
2023/05/20 16:35:33;;;;;;;9.23;5.78;;;;;;;23.26;43.61;99489.97;1087227;47;20027;-82
2023/05/20 16:36:36;;;;;;;8.85;6.15;;;;;;;23.13;43.94;99486.44;1087088;54;20060;-84
2023/05/20 16:37:38;;;;;;;8.63;5.32;;;;;;;23.17;43.92;99486.78;1086978;46;20050;-85
2023/05/20 16:38:42;;;;;;;7.38;5.85;;;;;;;23.02;44.14;99492.75;1087350;47;20056;-84
2023/05/20 16:39:43;;;;;;;8.05;6.22;;;;;;;23.13;44.00;99491.91;1086932;54;20034;-84
2023/05/20 16:41:55;;;;;;;7.28;6.03;;;;;;;23.04;44.22;99488.72;1087292;54;20106;-86
2023/05/20 16:42:56;;;;;;;6.57;5.47;;;;;;;23.15;43.97;99494.38;1087278;46;20022;-86
2023/05/20 16:44:00;;;;;;;8.73;6.47;;;;;;;23.24;43.91;99498.41;1087244;54;20038;-85
2023/05/20 16:45:01;;;;;;;7.63;5.95;;;;;;;23.14;43.98;99496.28;1087069;47;20115;-83
2023/05/20 16:46:07;;;;;;;7.63;5.43;;;;;;;23.13;44.13;99497.34;1087111;47;20038;-84
2023/05/20 16:48:13;;;;;;;6.75;5.35;;;;;;;23.19;44.35;99495.59;1087736;54;20034;-85
2023/05/20 16:50:18;;;;;;;7.45;5.82;;;;;;;23.32;43.70;99499.94;1087674;54;20030;-84
2023/05/20 16:51:20;;;;;;;9.35;5.82;;;;;;;23.29;44.10;99503.13;1087190;47;20026;-85
2023/05/20 16:52:23;;;;;;;7.70;5.47;;;;;;;23.36;43.98;99507.38;1090902;39;20281;-84
2023/05/20 16:53:24;;;;;;;9.57;5.40;;;;;;;23.34;44.11;99503.22;1088248;39;20943;-86
2023/05/20 16:54:28;;;;;;;11.93;6.00;;;;;;;23.24;44.28;99500.31;1087480;47;20055;-83
2023/05/20 16:55:32;;;;;;;8.27;5.72;;;;;;;23.31;44.51;99498.28;1087102;54;20027;-85
2023/05/20 16:56:35;;;;;;;8.10;5.90;;;;;;;23.32;44.35;99499.94;1087074;47;20030;-83
2023/05/20 16:57:39;;;;;;;7.75;5.85;;;;;;;23.33;44.50;99498.88;1087105;47;20030;-84
2023/05/20 16:58:40;;;;;;;6.50;5.18;;;;;;;23.35;44.41;99503.00;1087207;54;20031;-85
2023/05/20 16:59:44;;;;;;;8.18;6.10;;;;;;;23.31;44.87;99501.00;1087315;54;20034;-86
2023/05/20 17:00:45;;;;;;;7.95;5.72;;;;;;;23.15;45.09;99497.91;1087298;54;20030;-86
2023/05/20 17:01:51;;;;;;;7.63;6.10;;;;;;;23.20;45.11;99499.94;1087069;54;20027;-84
2023/05/20 17:02:52;;;;;;;7.38;5.63;;;;;;;23.18;45.19;99497.47;1086884;47;20027;-83
2023/05/20 17:04:00;;;;;;;8.02;5.90;;;;;;;23.18;45.29;99497.47;1087050;47;20774;-85
2023/05/20 17:05:28;;;;;;;;;;;;;;;;;;;;;
2023/05/20 17:06:34;;;;;;;13.50;6.45;;;;;;;23.21;45.29;99493.44;1086832;47;20065;-82
2023/05/20 17:07:35;;;;;;;7.88;5.85;;;;;;;23.32;44.90;99489.03;1086925;54;20030;-84
2023/05/20 17:09:41;;;;;;;12.00;6.40;;;;;;;23.18;45.38;99492.03;1087352;54;20014;-83
2023/05/20 17:18:52;;;;;;;7.85;5.93;;;;;;;23.07;46.13;99490.13;1087221;54;20035;-84
2023/05/20 17:38:25;;;;;;;9.30;7.03;;;;;;;22.63;47.22;99497.91;1087301;54;20026;-83
2023/05/20 17:39:31;;;;;;;8.85;6.53;;;;;;;22.60;47.32;99504.66;1086813;47;20023;-84
2023/05/20 17:40:33;;;;;;;7.63;5.93;;;;;;;22.76;47.15;99503.09;1086904;47;20034;-84
2023/05/20 17:41:37;;;;;;;9.10;6.18;;;;;;;22.57;47.21;99503.25;1086986;47;20056;-83
2023/05/20 17:42:40;;;;;;;7.45;6.15;;;;;;;22.59;47.20;99508.44;1086824;54;20035;-84
2023/05/20 17:43:45;;;;;;;7.63;6.70;;;;;;;22.65;46.92;99506.66;1086960;54;20046;-85
2023/05/20 17:44:46;;;;;;;7.28;6.10;;;;;;;22.76;46.74;99508.56;1087160;54;20033;-86
2023/05/20 17:45:50;;;;;;;7.72;5.82;;;;;;;22.74;47.14;99513.41;1086929;54;20034;-84
2023/05/20 17:46:51;;;;;;;6.97;5.80;;;;;;;22.57;47.35;99510.56;1086979;47;20023;-84
2023/05/20 17:47:55;;;;;;;11.30;6.50;;;;;;;22.58;47.41;99501.34;1086732;54;20039;-83
2023/05/20 17:48:56;;;;;;;9.77;6.30;;;;;;;22.53;47.31;99509.41;1086815;54;20239;-84
2023/05/20 17:50:01;;;;;;;9.88;6.40;;;;;;;22.56;47.49;99501.56;1086912;47;20030;-86
2023/05/20 17:51:04;;;;;;;8.35;5.63;;;;;;;22.61;47.33;99502.75;1087061;47;20426;-84
2023/05/20 17:52:09;;;;;;;9.02;5.95;;;;;;;22.59;47.49;99514.69;1086954;54;20035;-83
2023/05/20 17:53:10;;;;;;;7.68;5.90;;;;;;;22.64;47.24;99505.81;1087175;54;20043;-85
2023/05/20 17:54:16;;;;;;;7.80;5.63;;;;;;;22.62;47.31;99507.13;1086851;54;20035;-82
2023/05/20 18:00:58;;;;;;;8.30;6.80;;;;;;;22.40;48.10;99505.00;1070276;54;21242;31
2023/05/20 18:06:19;;;;;;;8.75;6.65;;;;;;;22.33;47.64;99520.59;1082909;54;20026;-85
2023/05/20 18:07:25;;;;;;;8.32;6.22;;;;;;;22.46;47.50;99512.22;1087276;47;20026;-86
2023/05/20 18:08:26;;;;;;;8.05;6.55;;;;;;;22.42;47.41;99514.59;1087344;47;20062;-85
2023/05/20 18:09:33;;;;;;;7.07;6.07;;;;;;;22.35;47.55;99527.44;1087006;54;20868;-84
2023/05/20 18:10:34;;;;;;;7.95;6.55;;;;;;;22.39;47.73;99519.63;1087210;46;20027;-84